Weather at Eindhoven Airport

Public forecast

Using degrees Celsius for public forecast. Weather courtesy of forecast.io.

Current aviation weather report (METAR) for Eindhoven Airport

2024/05/28 14:39 (retrieved 12 minutes ago)

EHEH 281439Z AUTO 20011KT 180V250 9999 -RADZ FEW017CB OVC042 16/11 Q1016 BLU BECMG SCT015 BKN020

Aviation forecast (TAF) for Eindhoven Airport

2024/05/28 12:00 (retrieved 3 hours ago)

TAF EHEH 281101Z 2812/2918 21010KT 9999 FEW026 BECMG 2815/2818 SCT010 BKN015 TEMPO 2817/2906 4000 RADZ BKN008 OVC012 BECMG 2905/2907 FEW016 SCT025 PROB40 TEMPO 2914/2917 FEW020 SCT025CB